sensor_id;sensor_type;location;lat;lon;timestamp;P1;durP1;ratioP1;P2;durP2;ratioP2
3081;SDS011;1551;51.046;7.010;2023-02-28T00:02:07;5.25;;;2.92;;
3081;SDS011;1551;51.046;7.010;2023-02-28T00:04:56;4.40;;;2.58;;
3081;SDS011;1551;51.046;7.010;2023-02-28T00:07:50;4.60;;;2.60;;
3081;SDS011;1551;51.046;7.010;2023-02-28T00:10:39;3.60;;;2.30;;
3081;SDS011;1551;51.046;7.010;2023-02-28T00:13:28;4.47;;;3.00;;
3081;SDS011;1551;51.046;7.010;2023-02-28T00:16:18;4.60;;;2.72;;
3081;SDS011;1551;51.046;7.010;2023-02-28T00:19:09;3.65;;;2.78;;
3081;SDS011;1551;51.046;7.010;2023-02-28T00:21:58;5.37;;;2.37;;
3081;SDS011;1551;51.046;7.010;2023-02-28T00:24:47;5.90;;;2.63;;
3081;SDS011;1551;51.046;7.010;2023-02-28T00:27:36;4.20;;;2.50;;
3081;SDS011;1551;51.046;7.010;2023-02-28T00:30:27;6.75;;;2.20;;
3081;SDS011;1551;51.046;7.010;2023-02-28T00:33:16;6.45;;;2.78;;
3081;SDS011;1551;51.046;7.010;2023-02-28T00:36:06;3.80;;;2.40;;
3081;SDS011;1551;51.046;7.010;2023-02-28T00:38:58;3.90;;;2.50;;
3081;SDS011;1551;51.046;7.010;2023-02-28T00:41:50;3.88;;;2.70;;
3081;SDS011;1551;51.046;7.010;2023-02-28T00:44:39;4.18;;;2.35;;
3081;SDS011;1551;51.046;7.010;2023-02-28T00:47:28;5.03;;;2.90;;
3081;SDS011;1551;51.046;7.010;2023-02-28T00:50:17;4.63;;;2.90;;
3081;SDS011;1551;51.046;7.010;2023-02-28T00:53:08;4.70;;;3.20;;
3081;SDS011;1551;51.046;7.010;2023-02-28T00:55:57;4.90;;;2.60;;
3081;SDS011;1551;51.046;7.010;2023-02-28T00:58:48;5.05;;;2.72;;
3081;SDS011;1551;51.046;7.010;2023-02-28T01:01:38;4.65;;;2.70;;
3081;SDS011;1551;51.046;7.010;2023-02-28T01:04:27;4.33;;;2.50;;
3081;SDS011;1551;51.046;7.010;2023-02-28T01:07:16;6.53;;;2.20;;
3081;SDS011;1551;51.046;7.010;2023-02-28T01:10:05;5.80;;;2.97;;
3081;SDS011;1551;51.046;7.010;2023-02-28T01:12:55;5.18;;;2.30;;
3081;SDS011;1551;51.046;7.010;2023-02-28T01:15:48;3.80;;;2.78;;
3081;SDS011;1551;51.046;7.010;2023-02-28T01:18:42;4.20;;;2.88;;
3081;SDS011;1551;51.046;7.010;2023-02-28T01:21:31;7.23;;;2.47;;
3081;SDS011;1551;51.046;7.010;2023-02-28T01:24:20;5.05;;;2.70;;
3081;SDS011;1551;51.046;7.010;2023-02-28T01:27:09;4.88;;;2.22;;
3081;SDS011;1551;51.046;7.010;2023-02-28T01:29:59;3.67;;;2.47;;
3081;SDS011;1551;51.046;7.010;2023-02-28T01:32:48;4.70;;;2.70;;
3081;SDS011;1551;51.046;7.010;2023-02-28T01:35:38;4.30;;;2.40;;
3081;SDS011;1551;51.046;7.010;2023-02-28T01:38:27;3.97;;;2.40;;
3081;SDS011;1551;51.046;7.010;2023-02-28T01:47:35;3.58;;;2.00;;
3081;SDS011;1551;51.046;7.010;2023-02-28T01:50:28;4.18;;;2.20;;
3081;SDS011;1551;51.046;7.010;2023-02-28T01:53:24;5.20;;;2.25;;
3081;SDS011;1551;51.046;7.010;2023-02-28T01:56:35;3.25;;;2.20;;
3081;SDS011;1551;51.046;7.010;2023-02-28T01:59:33;4.13;;;2.22;;
3081;SDS011;1551;51.046;7.010;2023-02-28T02:02:28;5.80;;;2.40;;
3081;SDS011;1551;51.046;7.010;2023-02-28T02:05:19;3.65;;;2.40;;
3081;SDS011;1551;51.046;7.010;2023-02-28T02:08:17;4.20;;;2.55;;
3081;SDS011;1551;51.046;7.010;2023-02-28T02:11:08;4.32;;;2.50;;
3081;SDS011;1551;51.046;7.010;2023-02-28T02:14:25;4.80;;;2.42;;
3081;SDS011;1551;51.046;7.010;2023-02-28T02:17:32;4.85;;;2.60;;
3081;SDS011;1551;51.046;7.010;2023-02-28T02:23:46;4.20;;;2.50;;
3081;SDS011;1551;51.046;7.010;2023-02-28T02:36:00;3.83;;;2.40;;
3081;SDS011;1551;51.046;7.010;2023-02-28T02:41:54;4.65;;;2.65;;
3081;SDS011;1551;51.046;7.010;2023-02-28T02:44:50;3.80;;;2.50;;
3081;SDS011;1551;51.046;7.010;2023-02-28T02:47:46;4.10;;;2.88;;
3081;SDS011;1551;51.046;7.010;2023-02-28T02:50:38;4.10;;;2.65;;
3081;SDS011;1551;51.046;7.010;2023-02-28T02:53:37;4.57;;;2.70;;
3081;SDS011;1551;51.046;7.010;2023-02-28T02:56:30;4.80;;;2.72;;
3081;SDS011;1551;51.046;7.010;2023-02-28T02:59:22;6.30;;;2.50;;
3081;SDS011;1551;51.046;7.010;2023-02-28T03:02:13;5.35;;;3.63;;
3081;SDS011;1551;51.046;7.010;2023-02-28T03:05:06;8.05;;;3.55;;
3081;SDS011;1551;51.046;7.010;2023-02-28T03:08:05;6.68;;;3.33;;
3081;SDS011;1551;51.046;7.010;2023-02-28T03:10:56;6.85;;;3.45;;
3081;SDS011;1551;51.046;7.010;2023-02-28T03:17:05;4.50;;;3.00;;
3081;SDS011;1551;51.046;7.010;2023-02-28T03:20:26;4.38;;;2.90;;
3081;SDS011;1551;51.046;7.010;2023-02-28T03:26:58;4.10;;;2.75;;
3081;SDS011;1551;51.046;7.010;2023-02-28T03:30:06;4.38;;;3.00;;
3081;SDS011;1551;51.046;7.010;2023-02-28T03:33:09;4.53;;;2.92;;
3081;SDS011;1551;51.046;7.010;2023-02-28T03:36:07;3.70;;;2.60;;
3081;SDS011;1551;51.046;7.010;2023-02-28T03:39:03;4.40;;;2.80;;
3081;SDS011;1551;51.046;7.010;2023-02-28T03:41:59;4.55;;;3.50;;
3081;SDS011;1551;51.046;7.010;2023-02-28T03:45:02;4.55;;;3.25;;
3081;SDS011;1551;51.046;7.010;2023-02-28T03:48:01;4.53;;;3.10;;
3081;SDS011;1551;51.046;7.010;2023-02-28T03:50:57;5.88;;;3.15;;
3081;SDS011;1551;51.046;7.010;2023-02-28T03:53:50;4.67;;;3.13;;
3081;SDS011;1551;51.046;7.010;2023-02-28T03:56:46;4.23;;;2.60;;
3081;SDS011;1551;51.046;7.010;2023-02-28T03:59:59;4.72;;;3.10;;
3081;SDS011;1551;51.046;7.010;2023-02-28T04:03:01;5.85;;;3.00;;
3081;SDS011;1551;51.046;7.010;2023-02-28T04:05:52;4.10;;;3.17;;
3081;SDS011;1551;51.046;7.010;2023-02-28T04:08:42;4.90;;;3.17;;
3081;SDS011;1551;51.046;7.010;2023-02-28T04:14:34;4.82;;;2.85;;
3081;SDS011;1551;51.046;7.010;2023-02-28T04:17:23;3.83;;;2.80;;
3081;SDS011;1551;51.046;7.010;2023-02-28T04:20:12;5.90;;;3.20;;
3081;SDS011;1551;51.046;7.010;2023-02-28T04:23:02;4.00;;;2.60;;
3081;SDS011;1551;51.046;7.010;2023-02-28T04:25:54;4.50;;;2.60;;
3081;SDS011;1551;51.046;7.010;2023-02-28T04:28:43;3.35;;;2.30;;
3081;SDS011;1551;51.046;7.010;2023-02-28T04:31:33;4.55;;;2.80;;
3081;SDS011;1551;51.046;7.010;2023-02-28T04:34:22;4.15;;;2.50;;
3081;SDS011;1551;51.046;7.010;2023-02-28T04:37:12;4.10;;;2.50;;
3081;SDS011;1551;51.046;7.010;2023-02-28T04:40:01;4.07;;;2.60;;
3081;SDS011;1551;51.046;7.010;2023-02-28T04:42:50;4.15;;;2.60;;
3081;SDS011;1551;51.046;7.010;2023-02-28T04:45:39;4.07;;;2.38;;
3081;SDS011;1551;51.046;7.010;2023-02-28T04:48:28;5.10;;;2.60;;
3081;SDS011;1551;51.046;7.010;2023-02-28T04:51:18;4.97;;;2.40;;
3081;SDS011;1551;51.046;7.010;2023-02-28T04:54:08;3.80;;;2.40;;
3081;SDS011;1551;51.046;7.010;2023-02-28T04:56:58;3.85;;;2.40;;
3081;SDS011;1551;51.046;7.010;2023-02-28T04:59:47;3.75;;;2.80;;
3081;SDS011;1551;51.046;7.010;2023-02-28T05:02:36;3.75;;;2.50;;
3081;SDS011;1551;51.046;7.010;2023-02-28T05:05:25;4.10;;;2.55;;
3081;SDS011;1551;51.046;7.010;2023-02-28T05:08:14;3.50;;;2.38;;
3081;SDS011;1551;51.046;7.010;2023-02-28T05:11:03;4.03;;;2.40;;
3081;SDS011;1551;51.046;7.010;2023-02-28T05:13:52;3.50;;;2.45;;
3081;SDS011;1551;51.046;7.010;2023-02-28T05:16:42;4.32;;;2.20;;
3081;SDS011;1551;51.046;7.010;2023-02-28T05:19:31;3.40;;;2.20;;
3081;SDS011;1551;51.046;7.010;2023-02-28T05:22:20;4.05;;;2.85;;
3081;SDS011;1551;51.046;7.010;2023-02-28T05:25:15;5.00;;;2.60;;
3081;SDS011;1551;51.046;7.010;2023-02-28T05:28:06;3.50;;;2.80;;
3081;SDS011;1551;51.046;7.010;2023-02-28T05:30:56;3.90;;;2.80;;
3081;SDS011;1551;51.046;7.010;2023-02-28T05:33:45;5.40;;;2.28;;
3081;SDS011;1551;51.046;7.010;2023-02-28T05:36:36;3.80;;;2.60;;
3081;SDS011;1551;51.046;7.010;2023-02-28T05:39:25;6.78;;;3.10;;
3081;SDS011;1551;51.046;7.010;2023-02-28T05:42:14;4.25;;;2.80;;
3081;SDS011;1551;51.046;7.010;2023-02-28T05:45:04;4.13;;;2.60;;
3081;SDS011;1551;51.046;7.010;2023-02-28T05:47:54;5.57;;;3.08;;
3081;SDS011;1551;51.046;7.010;2023-02-28T05:50:44;3.38;;;2.65;;
3081;SDS011;1551;51.046;7.010;2023-02-28T05:53:34;6.72;;;2.58;;
3081;SDS011;1551;51.046;7.010;2023-02-28T05:56:23;5.70;;;2.50;;
3081;SDS011;1551;51.046;7.010;2023-02-28T05:59:13;3.80;;;2.30;;
3081;SDS011;1551;51.046;7.010;2023-02-28T06:02:02;5.15;;;2.60;;
3081;SDS011;1551;51.046;7.010;2023-02-28T06:04:51;3.60;;;2.70;;
3081;SDS011;1551;51.046;7.010;2023-02-28T06:07:41;4.28;;;2.60;;
3081;SDS011;1551;51.046;7.010;2023-02-28T06:10:30;3.72;;;2.70;;
3081;SDS011;1551;51.046;7.010;2023-02-28T06:13:19;3.75;;;2.30;;
3081;SDS011;1551;51.046;7.010;2023-02-28T06:16:10;5.05;;;2.70;;
3081;SDS011;1551;51.046;7.010;2023-02-28T06:19:00;6.23;;;3.20;;
3081;SDS011;1551;51.046;7.010;2023-02-28T06:21:51;5.20;;;2.92;;
3081;SDS011;1551;51.046;7.010;2023-02-28T06:24:41;4.40;;;2.90;;
3081;SDS011;1551;51.046;7.010;2023-02-28T06:27:31;4.82;;;3.10;;
3081;SDS011;1551;51.046;7.010;2023-02-28T06:30:20;4.72;;;3.20;;
3081;SDS011;1551;51.046;7.010;2023-02-28T06:33:15;5.30;;;3.30;;
3081;SDS011;1551;51.046;7.010;2023-02-28T06:36:04;3.90;;;2.90;;
3081;SDS011;1551;51.046;7.010;2023-02-28T06:38:54;4.18;;;3.00;;
3081;SDS011;1551;51.046;7.010;2023-02-28T06:41:44;3.85;;;3.03;;
3081;SDS011;1551;51.046;7.010;2023-02-28T06:44:34;5.45;;;3.55;;
3081;SDS011;1551;51.046;7.010;2023-02-28T06:47:24;4.30;;;2.97;;
3081;SDS011;1551;51.046;7.010;2023-02-28T06:50:14;5.70;;;3.50;;
3081;SDS011;1551;51.046;7.010;2023-02-28T06:53:03;5.90;;;3.22;;
3081;SDS011;1551;51.046;7.010;2023-02-28T06:55:52;4.73;;;3.50;;
3081;SDS011;1551;51.046;7.010;2023-02-28T06:58:41;6.82;;;3.60;;
3081;SDS011;1551;51.046;7.010;2023-02-28T07:01:30;5.35;;;3.17;;
3081;SDS011;1551;51.046;7.010;2023-02-28T07:04:21;3.35;;;2.80;;
3081;SDS011;1551;51.046;7.010;2023-02-28T07:07:11;4.90;;;3.30;;
3081;SDS011;1551;51.046;7.010;2023-02-28T07:10:00;4.20;;;3.35;;
3081;SDS011;1551;51.046;7.010;2023-02-28T07:12:49;5.50;;;3.33;;
3081;SDS011;1551;51.046;7.010;2023-02-28T07:15:40;4.10;;;3.13;;
3081;SDS011;1551;51.046;7.010;2023-02-28T07:18:29;4.85;;;2.92;;
3081;SDS011;1551;51.046;7.010;2023-02-28T07:21:18;5.63;;;3.05;;
3081;SDS011;1551;51.046;7.010;2023-02-28T07:24:07;7.60;;;3.70;;
3081;SDS011;1551;51.046;7.010;2023-02-28T07:26:57;3.50;;;2.85;;
3081;SDS011;1551;51.046;7.010;2023-02-28T07:29:46;3.67;;;2.70;;
3081;SDS011;1551;51.046;7.010;2023-02-28T07:32:35;5.88;;;3.05;;
3081;SDS011;1551;51.046;7.010;2023-02-28T07:35:26;4.40;;;2.80;;
3081;SDS011;1551;51.046;7.010;2023-02-28T07:38:15;3.70;;;2.70;;
3081;SDS011;1551;51.046;7.010;2023-02-28T07:41:04;4.13;;;2.97;;
3081;SDS011;1551;51.046;7.010;2023-02-28T07:43:53;3.40;;;2.50;;
3081;SDS011;1551;51.046;7.010;2023-02-28T07:46:44;3.90;;;2.60;;
3081;SDS011;1551;51.046;7.010;2023-02-28T07:49:33;6.55;;;2.47;;
3081;SDS011;1551;51.046;7.010;2023-02-28T07:52:23;3.95;;;2.30;;
3081;SDS011;1551;51.046;7.010;2023-02-28T07:55:12;3.80;;;2.75;;
3081;SDS011;1551;51.046;7.010;2023-02-28T07:58:02;3.80;;;2.53;;
3081;SDS011;1551;51.046;7.010;2023-02-28T08:00:51;4.70;;;2.58;;
3081;SDS011;1551;51.046;7.010;2023-02-28T08:03:40;3.05;;;2.55;;
3081;SDS011;1551;51.046;7.010;2023-02-28T08:06:30;3.92;;;2.40;;
3081;SDS011;1551;51.046;7.010;2023-02-28T08:09:19;3.40;;;2.28;;
3081;SDS011;1551;51.046;7.010;2023-02-28T08:12:09;2.80;;;1.87;;
3081;SDS011;1551;51.046;7.010;2023-02-28T08:14:58;3.35;;;2.20;;
3081;SDS011;1551;51.046;7.010;2023-02-28T08:17:47;3.80;;;1.70;;
3081;SDS011;1551;51.046;7.010;2023-02-28T08:20:36;2.90;;;2.10;;
3081;SDS011;1551;51.046;7.010;2023-02-28T08:23:25;3.45;;;1.90;;
3081;SDS011;1551;51.046;7.010;2023-02-28T08:26:14;3.17;;;2.20;;
3081;SDS011;1551;51.046;7.010;2023-02-28T08:29:04;2.57;;;1.77;;
3081;SDS011;1551;51.046;7.010;2023-02-28T08:31:53;2.90;;;2.10;;
3081;SDS011;1551;51.046;7.010;2023-02-28T08:34:42;3.27;;;1.87;;
3081;SDS011;1551;51.046;7.010;2023-02-28T08:37:31;4.00;;;2.22;;
3081;SDS011;1551;51.046;7.010;2023-02-28T08:40:20;2.72;;;1.70;;
3081;SDS011;1551;51.046;7.010;2023-02-28T08:43:09;3.60;;;2.05;;
3081;SDS011;1551;51.046;7.010;2023-02-28T08:45:58;3.80;;;2.20;;
3081;SDS011;1551;51.046;7.010;2023-02-28T08:48:51;3.38;;;1.90;;
3081;SDS011;1551;51.046;7.010;2023-02-28T08:51:42;3.50;;;2.30;;
3081;SDS011;1551;51.046;7.010;2023-02-28T08:54:30;3.58;;;1.90;;
3081;SDS011;1551;51.046;7.010;2023-02-28T08:57:21;3.50;;;2.10;;
3081;SDS011;1551;51.046;7.010;2023-02-28T09:00:10;2.50;;;1.90;;
3081;SDS011;1551;51.046;7.010;2023-02-28T09:03:02;2.80;;;1.70;;
3081;SDS011;1551;51.046;7.010;2023-02-28T09:05:52;2.92;;;2.15;;
3081;SDS011;1551;51.046;7.010;2023-02-28T09:08:45;2.92;;;1.90;;
3081;SDS011;1551;51.046;7.010;2023-02-28T09:11:34;3.50;;;1.75;;
3081;SDS011;1551;51.046;7.010;2023-02-28T09:14:24;2.83;;;1.80;;
3081;SDS011;1551;51.046;7.010;2023-02-28T09:17:13;2.77;;;1.73;;
3081;SDS011;1551;51.046;7.010;2023-02-28T09:20:02;2.80;;;1.73;;
3081;SDS011;1551;51.046;7.010;2023-02-28T09:22:51;3.08;;;1.80;;
3081;SDS011;1551;51.046;7.010;2023-02-28T09:25:47;3.20;;;1.95;;
3081;SDS011;1551;51.046;7.010;2023-02-28T09:28:37;2.70;;;2.00;;
3081;SDS011;1551;51.046;7.010;2023-02-28T09:31:27;3.20;;;2.10;;
3081;SDS011;1551;51.046;7.010;2023-02-28T09:34:17;3.00;;;2.00;;
3081;SDS011;1551;51.046;7.010;2023-02-28T09:37:05;2.97;;;1.95;;
3081;SDS011;1551;51.046;7.010;2023-02-28T09:39:54;2.97;;;1.80;;
3081;SDS011;1551;51.046;7.010;2023-02-28T09:42:45;3.92;;;2.00;;
3081;SDS011;1551;51.046;7.010;2023-02-28T09:45:36;3.05;;;2.13;;
3081;SDS011;1551;51.046;7.010;2023-02-28T09:48:32;4.07;;;2.40;;
3081;SDS011;1551;51.046;7.010;2023-02-28T09:54:37;3.55;;;1.90;;
3081;SDS011;1551;51.046;7.010;2023-02-28T09:57:36;2.40;;;1.90;;
3081;SDS011;1551;51.046;7.010;2023-02-28T10:00:35;2.50;;;1.80;;
3081;SDS011;1551;51.046;7.010;2023-02-28T10:03:29;2.70;;;1.98;;
3081;SDS011;1551;51.046;7.010;2023-02-28T10:06:46;3.20;;;2.38;;
3081;SDS011;1551;51.046;7.010;2023-02-28T10:09:38;2.40;;;1.75;;
3081;SDS011;1551;51.046;7.010;2023-02-28T10:12:27;4.40;;;1.90;;
3081;SDS011;1551;51.046;7.010;2023-02-28T10:15:18;3.00;;;1.80;;
3081;SDS011;1551;51.046;7.010;2023-02-28T10:18:13;2.15;;;1.50;;
3081;SDS011;1551;51.046;7.010;2023-02-28T10:21:05;3.60;;;1.70;;
3081;SDS011;1551;51.046;7.010;2023-02-28T10:24:21;2.60;;;1.80;;
3081;SDS011;1551;51.046;7.010;2023-02-28T10:27:21;4.15;;;2.22;;
3081;SDS011;1551;51.046;7.010;2023-02-28T10:30:19;2.83;;;1.58;;
3081;SDS011;1551;51.046;7.010;2023-02-28T10:33:14;2.70;;;1.80;;
3081;SDS011;1551;51.046;7.010;2023-02-28T10:36:08;3.50;;;1.90;;
3081;SDS011;1551;51.046;7.010;2023-02-28T10:39:30;2.92;;;1.67;;
3081;SDS011;1551;51.046;7.010;2023-02-28T10:42:27;2.50;;;1.80;;
3081;SDS011;1551;51.046;7.010;2023-02-28T10:45:19;5.93;;;2.30;;
3081;SDS011;1551;51.046;7.010;2023-02-28T10:51:03;2.80;;;1.83;;
3081;SDS011;1551;51.046;7.010;2023-02-28T10:53:54;3.30;;;2.25;;
3081;SDS011;1551;51.046;7.010;2023-02-28T10:56:43;3.47;;;1.90;;
3081;SDS011;1551;51.046;7.010;2023-02-28T10:59:33;2.63;;;1.70;;
3081;SDS011;1551;51.046;7.010;2023-02-28T11:02:35;2.47;;;1.77;;
3081;SDS011;1551;51.046;7.010;2023-02-28T11:05:34;2.80;;;2.00;;
3081;SDS011;1551;51.046;7.010;2023-02-28T11:08:25;3.17;;;2.50;;
3081;SDS011;1551;51.046;7.010;2023-02-28T11:11:14;2.60;;;1.88;;
3081;SDS011;1551;51.046;7.010;2023-02-28T11:14:05;2.92;;;2.08;;
3081;SDS011;1551;51.046;7.010;2023-02-28T11:17:20;3.45;;;2.20;;
3081;SDS011;1551;51.046;7.010;2023-02-28T11:20:17;3.25;;;2.15;;
3081;SDS011;1551;51.046;7.010;2023-02-28T11:23:12;3.78;;;2.00;;
3081;SDS011;1551;51.046;7.010;2023-02-28T11:26:03;3.33;;;2.53;;
3081;SDS011;1551;51.046;7.010;2023-02-28T11:29:05;3.20;;;2.00;;
3081;SDS011;1551;51.046;7.010;2023-02-28T11:37:59;3.00;;;2.22;;
3081;SDS011;1551;51.046;7.010;2023-02-28T11:47:12;2.70;;;2.20;;
3081;SDS011;1551;51.046;7.010;2023-02-28T11:53:05;3.47;;;2.45;;
3081;SDS011;1551;51.046;7.010;2023-02-28T11:56:10;2.85;;;2.35;;
3081;SDS011;1551;51.046;7.010;2023-02-28T12:02:49;5.00;;;2.80;;
3081;SDS011;1551;51.046;7.010;2023-02-28T12:15:24;3.40;;;2.50;;
3081;SDS011;1551;51.046;7.010;2023-02-28T12:18:35;3.20;;;2.60;;
3081;SDS011;1551;51.046;7.010;2023-02-28T12:28:37;3.42;;;2.40;;
3081;SDS011;1551;51.046;7.010;2023-02-28T12:31:31;4.93;;;2.58;;
3081;SDS011;1551;51.046;7.010;2023-02-28T12:34:28;2.80;;;2.20;;
3081;SDS011;1551;51.046;7.010;2023-02-28T12:37:25;3.30;;;2.42;;
3081;SDS011;1551;51.046;7.010;2023-02-28T12:40:21;3.67;;;2.67;;
3081;SDS011;1551;51.046;7.010;2023-02-28T12:43:12;3.60;;;2.58;;
3081;SDS011;1551;51.046;7.010;2023-02-28T12:46:11;3.15;;;2.85;;
3081;SDS011;1551;51.046;7.010;2023-02-28T12:49:23;4.38;;;2.80;;
3081;SDS011;1551;51.046;7.010;2023-02-28T12:52:23;3.10;;;2.40;;
3081;SDS011;1551;51.046;7.010;2023-02-28T12:55:27;3.35;;;2.55;;
3081;SDS011;1551;51.046;7.010;2023-02-28T12:58:39;4.70;;;2.70;;
3081;SDS011;1551;51.046;7.010;2023-02-28T13:01:54;3.33;;;2.30;;
3081;SDS011;1551;51.046;7.010;2023-02-28T13:11:24;3.00;;;2.10;;
3081;SDS011;1551;51.046;7.010;2023-02-28T13:17:19;3.47;;;2.70;;
3081;SDS011;1551;51.046;7.010;2023-02-28T13:20:26;3.30;;;2.40;;
3081;SDS011;1551;51.046;7.010;2023-02-28T13:29:39;2.85;;;1.90;;
3081;SDS011;1551;51.046;7.010;2023-02-28T13:32:31;3.10;;;2.50;;
3081;SDS011;1551;51.046;7.010;2023-02-28T13:35:35;3.47;;;2.00;;
3081;SDS011;1551;51.046;7.010;2023-02-28T13:38:32;4.45;;;2.50;;
3081;SDS011;1551;51.046;7.010;2023-02-28T13:44:20;3.67;;;2.40;;
3081;SDS011;1551;51.046;7.010;2023-02-28T13:47:22;2.75;;;2.30;;
3081;SDS011;1551;51.046;7.010;2023-02-28T13:50:21;3.10;;;2.38;;
3081;SDS011;1551;51.046;7.010;2023-02-28T13:59:24;3.80;;;2.60;;
3081;SDS011;1551;51.046;7.010;2023-02-28T14:05:34;3.15;;;2.60;;
3081;SDS011;1551;51.046;7.010;2023-02-28T14:08:24;3.50;;;2.65;;
3081;SDS011;1551;51.046;7.010;2023-02-28T14:11:23;3.43;;;2.60;;
3081;SDS011;1551;51.046;7.010;2023-02-28T14:14:53;2.77;;;2.47;;
3081;SDS011;1551;51.046;7.010;2023-02-28T14:17:27;3.83;;;3.20;;
3081;SDS011;1551;51.046;7.010;2023-02-28T14:20:16;4.23;;;2.73;;
3081;SDS011;1551;51.046;7.010;2023-02-28T14:23:10;3.93;;;2.50;;
3081;SDS011;1551;51.046;7.010;2023-02-28T14:26:31;3.38;;;2.55;;
3081;SDS011;1551;51.046;7.010;2023-02-28T14:32:44;3.50;;;2.90;;
3081;SDS011;1551;51.046;7.010;2023-02-28T14:38:33;3.42;;;2.67;;
3081;SDS011;1551;51.046;7.010;2023-02-28T14:44:26;3.53;;;2.60;;
3081;SDS011;1551;51.046;7.010;2023-02-28T14:47:16;3.53;;;2.50;;
3081;SDS011;1551;51.046;7.010;2023-02-28T14:50:05;4.13;;;3.00;;
3081;SDS011;1551;51.046;7.010;2023-02-28T14:52:57;3.50;;;2.30;;
3081;SDS011;1551;51.046;7.010;2023-02-28T14:55:48;3.90;;;2.60;;
3081;SDS011;1551;51.046;7.010;2023-02-28T14:58:38;3.30;;;2.90;;
3081;SDS011;1551;51.046;7.010;2023-02-28T15:01:27;5.10;;;3.17;;
3081;SDS011;1551;51.046;7.010;2023-02-28T15:04:21;3.28;;;2.80;;
3081;SDS011;1551;51.046;7.010;2023-02-28T15:07:15;3.10;;;2.42;;
3081;SDS011;1551;51.046;7.010;2023-02-28T15:13:06;3.63;;;2.75;;
3081;SDS011;1551;51.046;7.010;2023-02-28T15:16:01;2.75;;;2.30;;
3081;SDS011;1551;51.046;7.010;2023-02-28T15:18:59;3.30;;;2.33;;
3081;SDS011;1551;51.046;7.010;2023-02-28T15:21:52;5.68;;;2.20;;
3081;SDS011;1551;51.046;7.010;2023-02-28T15:24:49;3.37;;;2.77;;
3081;SDS011;1551;51.046;7.010;2023-02-28T15:27:45;4.00;;;2.72;;
3081;SDS011;1551;51.046;7.010;2023-02-28T15:30:37;3.50;;;2.50;;
3081;SDS011;1551;51.046;7.010;2023-02-28T15:33:28;3.83;;;3.00;;
3081;SDS011;1551;51.046;7.010;2023-02-28T15:36:26;4.93;;;2.80;;
3081;SDS011;1551;51.046;7.010;2023-02-28T15:39:19;3.30;;;2.50;;
3081;SDS011;1551;51.046;7.010;2023-02-28T15:42:11;4.35;;;3.00;;
3081;SDS011;1551;51.046;7.010;2023-02-28T15:45:25;3.50;;;2.63;;
3081;SDS011;1551;51.046;7.010;2023-02-28T15:48:24;3.90;;;2.60;;
3081;SDS011;1551;51.046;7.010;2023-02-28T15:51:17;5.10;;;2.85;;
3081;SDS011;1551;51.046;7.010;2023-02-28T15:54:11;3.13;;;2.30;;
3081;SDS011;1551;51.046;7.010;2023-02-28T15:57:07;5.83;;;2.70;;
3081;SDS011;1551;51.046;7.010;2023-02-28T16:00:03;4.13;;;2.60;;
3081;SDS011;1551;51.046;7.010;2023-02-28T16:03:00;3.60;;;2.60;;
3081;SDS011;1551;51.046;7.010;2023-02-28T16:06:07;3.08;;;2.65;;
3081;SDS011;1551;51.046;7.010;2023-02-28T16:08:57;3.73;;;2.70;;
3081;SDS011;1551;51.046;7.010;2023-02-28T16:11:50;3.00;;;2.60;;
3081;SDS011;1551;51.046;7.010;2023-02-28T16:14:41;4.28;;;2.70;;
3081;SDS011;1551;51.046;7.010;2023-02-28T16:17:33;3.40;;;2.65;;
3081;SDS011;1551;51.046;7.010;2023-02-28T16:20:25;4.70;;;2.97;;
3081;SDS011;1551;51.046;7.010;2023-02-28T16:23:16;4.20;;;2.72;;
3081;SDS011;1551;51.046;7.010;2023-02-28T16:26:05;4.13;;;2.90;;
3081;SDS011;1551;51.046;7.010;2023-02-28T16:28:55;4.13;;;2.50;;
3081;SDS011;1551;51.046;7.010;2023-02-28T16:31:44;4.45;;;2.95;;
3081;SDS011;1551;51.046;7.010;2023-02-28T16:34:33;5.78;;;2.90;;
3081;SDS011;1551;51.046;7.010;2023-02-28T16:37:22;3.65;;;2.40;;
3081;SDS011;1551;51.046;7.010;2023-02-28T16:40:16;4.80;;;2.83;;
3081;SDS011;1551;51.046;7.010;2023-02-28T16:43:14;3.42;;;2.30;;
3081;SDS011;1551;51.046;7.010;2023-02-28T16:46:08;4.85;;;2.50;;
3081;SDS011;1551;51.046;7.010;2023-02-28T16:48:59;3.50;;;2.70;;
3081;SDS011;1551;51.046;7.010;2023-02-28T16:51:48;3.80;;;3.20;;
3081;SDS011;1551;51.046;7.010;2023-02-28T16:54:38;3.03;;;2.65;;
3081;SDS011;1551;51.046;7.010;2023-02-28T16:57:28;3.55;;;2.40;;
3081;SDS011;1551;51.046;7.010;2023-02-28T17:00:17;4.20;;;2.95;;
3081;SDS011;1551;51.046;7.010;2023-02-28T17:03:10;4.57;;;2.97;;
3081;SDS011;1551;51.046;7.010;2023-02-28T17:06:24;4.18;;;2.90;;
3081;SDS011;1551;51.046;7.010;2023-02-28T17:09:17;5.40;;;3.35;;
3081;SDS011;1551;51.046;7.010;2023-02-28T17:12:11;5.65;;;3.95;;
3081;SDS011;1551;51.046;7.010;2023-02-28T17:15:00;5.72;;;3.80;;
3081;SDS011;1551;51.046;7.010;2023-02-28T17:17:49;4.95;;;3.58;;
3081;SDS011;1551;51.046;7.010;2023-02-28T17:20:38;5.22;;;4.10;;
3081;SDS011;1551;51.046;7.010;2023-02-28T17:23:27;4.53;;;3.63;;
3081;SDS011;1551;51.046;7.010;2023-02-28T17:26:17;4.35;;;3.60;;
3081;SDS011;1551;51.046;7.010;2023-02-28T17:29:15;5.10;;;3.60;;
3081;SDS011;1551;51.046;7.010;2023-02-28T17:32:06;6.65;;;3.97;;
3081;SDS011;1551;51.046;7.010;2023-02-28T17:34:55;5.38;;;4.10;;
3081;SDS011;1551;51.046;7.010;2023-02-28T17:37:44;4.82;;;3.45;;
3081;SDS011;1551;51.046;7.010;2023-02-28T17:40:33;6.00;;;4.40;;
3081;SDS011;1551;51.046;7.010;2023-02-28T17:43:23;4.38;;;3.80;;
3081;SDS011;1551;51.046;7.010;2023-02-28T17:46:15;6.05;;;4.35;;
3081;SDS011;1551;51.046;7.010;2023-02-28T17:49:08;5.20;;;4.20;;
3081;SDS011;1551;51.046;7.010;2023-02-28T17:51:57;4.87;;;4.23;;
3081;SDS011;1551;51.046;7.010;2023-02-28T17:54:46;5.00;;;3.90;;
3081;SDS011;1551;51.046;7.010;2023-02-28T17:57:35;4.13;;;3.53;;
3081;SDS011;1551;51.046;7.010;2023-02-28T18:00:24;4.50;;;3.90;;
3081;SDS011;1551;51.046;7.010;2023-02-28T18:03:13;5.57;;;4.00;;
3081;SDS011;1551;51.046;7.010;2023-02-28T18:06:03;4.70;;;3.85;;
3081;SDS011;1551;51.046;7.010;2023-02-28T18:08:52;5.20;;;3.90;;
3081;SDS011;1551;51.046;7.010;2023-02-28T18:11:42;5.57;;;3.95;;
3081;SDS011;1551;51.046;7.010;2023-02-28T18:14:34;4.90;;;4.30;;
3081;SDS011;1551;51.046;7.010;2023-02-28T18:17:23;5.10;;;4.60;;
3081;SDS011;1551;51.046;7.010;2023-02-28T18:20:12;6.30;;;4.65;;
3081;SDS011;1551;51.046;7.010;2023-02-28T18:23:00;6.63;;;4.80;;
3081;SDS011;1551;51.046;7.010;2023-02-28T18:25:49;7.23;;;4.57;;
3081;SDS011;1551;51.046;7.010;2023-02-28T18:28:38;6.13;;;5.10;;
3081;SDS011;1551;51.046;7.010;2023-02-28T18:31:30;5.20;;;4.70;;
3081;SDS011;1551;51.046;7.010;2023-02-28T18:34:20;6.05;;;5.13;;
3081;SDS011;1551;51.046;7.010;2023-02-28T18:37:11;6.50;;;4.78;;
3081;SDS011;1551;51.046;7.010;2023-02-28T18:40:00;6.45;;;4.60;;
3081;SDS011;1551;51.046;7.010;2023-02-28T18:42:48;5.90;;;4.40;;
3081;SDS011;1551;51.046;7.010;2023-02-28T18:45:38;5.70;;;4.83;;
3081;SDS011;1551;51.046;7.010;2023-02-28T18:48:27;6.67;;;4.93;;
3081;SDS011;1551;51.046;7.010;2023-02-28T18:51:18;6.32;;;4.93;;
3081;SDS011;1551;51.046;7.010;2023-02-28T18:54:10;6.45;;;4.68;;
3081;SDS011;1551;51.046;7.010;2023-02-28T18:56:59;6.70;;;5.00;;
3081;SDS011;1551;51.046;7.010;2023-02-28T18:59:48;5.75;;;4.72;;
3081;SDS011;1551;51.046;7.010;2023-02-28T19:02:37;8.80;;;5.10;;
3081;SDS011;1551;51.046;7.010;2023-02-28T19:05:26;7.28;;;4.82;;
3081;SDS011;1551;51.046;7.010;2023-02-28T19:08:18;7.15;;;5.15;;
3081;SDS011;1551;51.046;7.010;2023-02-28T19:11:08;7.85;;;6.22;;
3081;SDS011;1551;51.046;7.010;2023-02-28T19:14:00;7.18;;;5.40;;
3081;SDS011;1551;51.046;7.010;2023-02-28T19:16:50;6.85;;;5.35;;
3081;SDS011;1551;51.046;7.010;2023-02-28T19:19:40;6.47;;;5.30;;
3081;SDS011;1551;51.046;7.010;2023-02-28T19:22:29;9.07;;;5.93;;
3081;SDS011;1551;51.046;7.010;2023-02-28T19:25:18;9.60;;;6.10;;
3081;SDS011;1551;51.046;7.010;2023-02-28T19:28:07;8.52;;;6.40;;
3081;SDS011;1551;51.046;7.010;2023-02-28T19:30:56;10.93;;;7.20;;
3081;SDS011;1551;51.046;7.010;2023-02-28T19:33:45;9.70;;;6.55;;
3081;SDS011;1551;51.046;7.010;2023-02-28T19:36:34;8.35;;;6.30;;
3081;SDS011;1551;51.046;7.010;2023-02-28T19:39:23;6.43;;;5.47;;
3081;SDS011;1551;51.046;7.010;2023-02-28T19:42:16;7.00;;;5.20;;
3081;SDS011;1551;51.046;7.010;2023-02-28T19:45:06;6.97;;;5.57;;
3081;SDS011;1551;51.046;7.010;2023-02-28T19:47:57;7.30;;;5.50;;